Tiempo atmosférico en la estación meteorológica de Tinajo, Las Palmas (275 m.)



Fecha
DESCASC
Temp. máxima en grados centígrados (hora)
DESCASC
Temp. mínima en grados centígrados (hora)
DESCASC
Temp. media en grados centígrados
DESCASC
Racha de viento máxima en m/sg (hora)
DESCASC
Velocidad máxima media en intervalos de 10 minutos(hora)
DESCASC
Precipitaciones diarias en mm
DESCASC
Precipitaciones de 00:00 a 06:00 en mm
DESCASC
Precipitaciones de 06:00 a 12:00 en mm
DESCASC
Precipitaciones de 12:00 a 18:00 en mm
DESCASC
Precipitaciones de 18:00 a 24:00 en mm
DESCASC
25-04-2019 20.1 (12:50) 15.2 (01:00) 17.7 13.33 (20:40) 8.33 (19:40) 0 0 0 0 0
24-04-2019 19.8 (15:40) 13.8 (02:40) 16.8 10 (16:40) 6.39 (20:20) 0 0 0 0 0
23-04-2019 17.9 (11:00) 14.5 (22:20) 16.2 12.5 (12:00) 8.06 (03:30) 0.2 0 0 0.2 0
22-04-2019 18.7 (13:50) 15.3 (00:00) 17 12.5 (01:00) 8.61 (00:30) 0 0 0 0 0
21-04-2019 18.3 (13:20) 14.3 (00:00) 16.3 12.5 (12:40) 8.33 (23:30) 0 0 0 0 0
20-04-2019 18.5 (16:30) 14.4 (00:00) 16.4 12.22 (12:40) 8.33 (09:10) 0 0 0 0 0
19-04-2019 18.7 (13:30) 14.1 (00:00) 16.4 13.89 (09:50) 8.61 (10:20) 0 0 0 0 0
18-04-2019 18.4 (14:50) 14.7 (00:00) 16.5 12.22 (12:40) 8.06 (15:10) 0 0 0 0 0
17-04-2019 21.4 (13:20) 14.1 (00:00) 17.8 12.22 (14:00) 8.33 (14:00) 0 0 0 0 0
16-04-2019 24 (14:10) 12.3 (00:00) 18.2 9.17 (13:40) 4.72 (00:10) 0 0 0 0 0
15-04-2019 21.1 (13:50) 14.7 (00:00) 17.9 10.28 (15:20) 7.22 (16:50) 0 0 0 0 0
14-04-2019 21.4 (11:50) 14.1 (00:00) 17.8 11.67 (00:40) 7.22 (00:10) 0 0 0 0 0
13-04-2019 19 (16:20) 14 (00:00) 16.5 16.39 (16:40) 8.89 (11:40) 0 0 0 0 0
12-04-2019 18.4 (14:20) 13.9 (00:00) 16.1 16.39 (09:50) 10.28 (09:50) 0 0 0 0 0
11-04-2019 18.2 (15:20) 14.3 (00:00) 16.3 17.22 (15:30) 10.28 (17:40) 0 0 0 0 0
10-04-2019 18 (15:10) 14.2 (00:00) 16.1 16.67 (16:40) 10.56 (15:00) 0 0 0 0 0
09-04-2019 17.6 (16:50) 14.5 (00:00) 16.1 12.78 (20:40) 8.61 (17:50) 0.4 0 0.4 0 0
08-04-2019 18.4 (16:50) 14 (00:00) 16.2 10.83 (16:40) 6.67 (20:50) 0.2 0.2 0 0 0
07-04-2019 19.3 (15:40) 13.5 (00:00) 16.4 10 (16:30) 6.67 (07:30) 0 0 0 0 0
06-04-2019 17.4 (14:50) 12.3 (00:00) 14.8 13.61 (07:00) 8.33 (17:30) 0.2 0.2 0 0 0
05-04-2019 18.6 (13:30) 13 (00:00) 15.8 13.33 (22:30) 8.89 (22:30) 1.4 0 0 1.2 0.2
04-04-2019 17.7 (15:50) 12.9 (00:00) 15.3 9.72 (16:40) 6.11 (17:00) 0 0 0 0 0
03-04-2019 19.5 (15:00) 13.4 (00:00) 16.4 11.39 (16:20) 7.78 (16:30) 0 0 0 0 0
02-04-2019 23.1 (14:50) 12.5 (00:00) 17.8 11.11 (11:40) 8.06 (11:10) 0 0 0 0 0
01-04-2019 18.1 (12:30) 14 (00:00) 16.1 7.78 (17:30) 5.56 (17:30) 0.8 0 0.8 0 0
31-03-2019 19.4 (15:10) 13.7 (00:00) 16.5 8.61 (18:40) 6.39 (18:40) 0 0 0 0 0
30-03-2019 19.2 (14:30) 11.7 (00:00) 15.5 8.89 (21:10) 6.11 (21:10) 0 0 0 0 0
29-03-2019 19.2 (11:10) 10.7 (00:00) 15 6.94 (15:50) 4.72 (14:30) 0 0 0 0 0
28-03-2019 19.1 (13:40) 12.7 (00:00) 15.9 7.22 (16:40) 4.44 (17:20) 0 0 0 0 0
27-03-2019 19.4 (13:00) 12.1 (00:00) 15.8 7.5 (14:30) 4.72 (15:10) 0 0 0 0 0

Gráficas

Temp. máximas Temp. mínimas Temp. medias Precipitaciones Rachas de viento máximas Velocidades máximas media en intervalos de 10 minutos

Datos horarios

Fecha y hora oficial Temperatura (ºC) Velocidad del viento (km/h) Dirección del viento Racha (km/h) Dirección de racha Precipitación (mm) Presión (hPa) Tendencia (hPa) Humedad (%)
2019-04-25 23:00:00 15.9 27 Nordeste 45 Norte 0 -- -- 84
2019-04-25 22:00:00 16.2 24 Norte 40 Norte 0 -- -- 83
2019-04-25 21:00:00 16.5 25 Norte 48 Norte 0 -- -- 80
2019-04-25 20:00:00 17.2 28 Norte 41 Norte 0 -- -- 77
2019-04-25 19:00:00 17.9 26 Norte 41 Noroeste 0 -- -- 75
2019-04-25 18:00:00 18.9 24 Norte 37 Norte 0 -- -- 70
2019-04-25 17:00:00 19.1 23 Norte 36 Norte 0 -- -- 65
2019-04-25 16:00:00 19.7 20 Norte 32 Noroeste 0 -- -- 55
2019-04-25 15:00:00 20 19 Norte 32 Norte 0 -- -- 53
2019-04-25 14:00:00 19.8 18 Norte 34 Nordeste 0 -- -- 55
2019-04-25 13:00:00 20.1 21 Norte 39 Nordeste 0 -- -- 52
2019-04-25 12:00:00 19.8 19 Nordeste 32 Norte 0 -- -- 55
2019-04-25 11:00:00 18.2 17 Norte 32 Norte 0 -- -- 61
2019-04-25 10:00:00 17.6 18 Norte 27 Norte 0 -- -- 64
2019-04-25 09:00:00 16.7 15 Norte 26 Norte 0 -- -- 68
2019-04-25 08:00:00 15.9 15 Norte 31 Noroeste 0 -- -- 77
2019-04-25 07:00:00 15.9 10 Norte 21 Noroeste 0 -- -- 74
2019-04-25 06:00:00 15.7 9 Noroeste 21 Norte 0 -- -- 74
2019-04-25 05:00:00 15.5 11 Noroeste 21 Noroeste 0 -- -- 74
2019-04-25 04:00:00 15.3 10 Norte 27 Norte 0 -- -- 71
2019-04-25 03:00:00 15.5 14 Norte 23 Norte 0 -- -- 77
2019-04-25 02:00:00 15.7 15 Noroeste 26 Noroeste 0 -- -- 78
2019-04-25 01:00:00 15.2 13 Noroeste 24 Noroeste 0 -- -- 78
2019-04-25 00:00:00 15.4 13 Noroeste 28 Noroeste 0 -- -- 76
2019-04-24 23:00:00 15.7 18 Noroeste 30 Norte 0 -- -- 74
2019-04-24 22:00:00 15.8 17 Noroeste 32 Noroeste 0 -- -- 71
2019-04-24 21:00:00 16.1 17 Noroeste 33 Noroeste 0 -- -- 71
2019-04-24 20:00:00 16.6 21 Noroeste 33 Noroeste 0 -- -- 71
2019-04-24 19:00:00 17.4 19 Noroeste 33 Norte 0 -- -- 68
2019-04-24 18:00:00 17.7 19 Norte 30 Noroeste 0 -- -- 65
2019-04-24 17:00:00 18.4 18 Noroeste 36 Noroeste 0 -- -- 64
2019-04-24 16:00:00 19.3 18 Noroeste 30 Noroeste 0 -- -- 60
2019-04-24 15:00:00 19.1 15 Noroeste 27 Noroeste 0 -- -- 56
2019-04-24 14:00:00 19 14 Noroeste 25 Noroeste 0 -- -- 57
2019-04-24 13:00:00 18.4 15 Noroeste 29 Noroeste 0 -- -- 62
2019-04-24 12:00:00 17.5 14 Norte 26 Norte 0 -- -- 63
2019-04-24 11:00:00 16.8 18 Noroeste 30 Noroeste 0 -- -- 68
2019-04-24 10:00:00 15.8 17 Noroeste 25 Noroeste 0 -- -- 71
2019-04-24 09:00:00 15.4 14 Noroeste 24 Norte 0 -- -- 73
2019-04-24 08:00:00 14.1 10 Noroeste 22 Noroeste 0 -- -- 77
2019-04-24 07:00:00 14 15 Noroeste 28 Noroeste 0 -- -- 76
2019-04-24 06:00:00 14 14 Noroeste 26 Noroeste 0 -- -- 73
2019-04-24 05:00:00 13.9 12 Noroeste 25 Noroeste 0 -- -- 75
2019-04-24 04:00:00 13.9 13 Noroeste 28 Norte 0 -- -- 73
2019-04-24 03:00:00 13.8 15 Noroeste 23 Norte 0 -- -- 72
2019-04-24 02:00:00 14.1 12 Norte 28 Noroeste 0 -- -- 71
2019-04-24 01:00:00 14.7 13 Norte 27 Noroeste 0 -- -- 70
2019-04-24 00:00:00 14.8 13 Norte 26 Norte 0 -- -- 70
2019-04-23 23:00:00 14.6 14 Noroeste 30 Noroeste 0 -- -- 75
2019-04-23 22:00:00 14.6 15 Norte 29 Norte 0 -- -- 76
2019-04-23 21:00:00 14.6 18 Norte 30 Norte 0 -- -- 72
2019-04-23 20:00:00 15.5 14 Norte 24 Norte 0 -- -- 66
2019-04-23 19:00:00 16 17 Norte 32 Noroeste 0 -- -- 65
2019-04-23 18:00:00 16.5 24 Norte 33 Norte 0 -- -- 64
2019-04-23 17:00:00 16.7 22 Norte 35 Norte 0 -- -- 63
2019-04-23 16:00:00 17.2 20 Norte 34 Norte 0 -- -- 68
2019-04-23 15:00:00 16.7 24 Norte 34 Norte 0 -- -- 73
2019-04-23 14:00:00 16.1 20 Norte 34 Norte 0 -- -- 81
2019-04-23 13:00:00 15.1 21 Norte 39 Noroeste 0.2 -- -- 91
2019-04-23 12:00:00 16 24 Norte 45 Norte 0 -- -- 89
2019-04-23 11:00:00 17.9 23 Noroeste 36 Noroeste 0 -- -- 78
2019-04-23 10:00:00 16.7 23 Noroeste 37 Noroeste 0 -- -- 84
2019-04-23 09:00:00 16.7 22 Noroeste 33 Noroeste 0 -- -- 78
2019-04-23 08:00:00 15.9 24 Noroeste 32 Noroeste 0 -- -- 80
2019-04-23 07:00:00 15.8 22 Noroeste 34 Noroeste 0 -- -- 82
2019-04-23 06:00:00 15.9 14 Noroeste 26 Noroeste 0 -- -- 77
2019-04-23 05:00:00 15.9 18 Noroeste 38 Noroeste 0 -- -- 72
2019-04-23 04:00:00 15.7 20 Noroeste 38 Noroeste 0 -- -- 71
2019-04-23 03:00:00 15.8 22 Noroeste 37 Noroeste 0 -- -- 73
2019-04-23 02:00:00 15.6 16 Noroeste 32 Noroeste 0 -- -- 79
2019-04-23 01:00:00 15.5 21 Noroeste 35 Noroeste 0 -- -- 84
2019-04-23 00:00:00 16.1 20 Noroeste 31 Noroeste 0 -- -- 81
2019-04-22 23:00:00 16.1 22 Noroeste 36 Noroeste 0 -- -- 74
2019-04-22 22:00:00 15.7 24 Noroeste 39 Noroeste 0 -- -- 75
2019-04-22 21:00:00 15.8 26 Noroeste 38 Noroeste 0 -- -- 77
2019-04-22 20:00:00 16.1 25 Noroeste 39 Noroeste 0 -- -- 74
2019-04-22 19:00:00 16.7 28 Noroeste 39 Noroeste 0 -- -- 72
2019-04-22 18:00:00 17.2 25 Noroeste 41 Noroeste 0 -- -- 69
2019-04-22 17:00:00 17.6 25 Noroeste 40 Noroeste 0 -- -- 71
2019-04-22 16:00:00 17.6 24 Noroeste 45 Noroeste 0 -- -- 70
2019-04-22 15:00:00 17.9 28 Noroeste 41 Noroeste 0 -- -- 66
2019-04-22 14:00:00 18.6 23 Noroeste 37 Noroeste 0 -- -- 60
2019-04-22 13:00:00 18.1 23 Noroeste 38 Noroeste 0 -- -- 66
2019-04-22 12:00:00 17.8 21 Noroeste 37 Noroeste 0 -- -- 67
2019-04-22 11:00:00 17.6 22 Noroeste 34 Noroeste 0 -- -- 66
2019-04-22 10:00:00 16.7 19 Noroeste 33 Noroeste 0 -- -- 75
2019-04-22 09:00:00 16.1 18 Noroeste 35 Noroeste 0 -- -- 72
2019-04-22 08:00:00 15.5 25 Noroeste 37 Noroeste 0 -- -- 78
2019-04-22 07:00:00 15.4 19 Noroeste 35 Noroeste 0 -- -- 77
2019-04-22 06:00:00 15.4 19 Noroeste 34 Noroeste 0 -- -- 80
2019-04-22 05:00:00 15.3 18 Noroeste 33 Noroeste 0 -- -- 80
2019-04-22 04:00:00 15.4 21 Noroeste 33 Noroeste 0 -- -- 81
2019-04-22 03:00:00 15.3 23 Noroeste 37 Noroeste 0 -- -- 77
2019-04-22 02:00:00 15.7 27 Noroeste 37 Noroeste 0 -- -- 74
2019-04-22 01:00:00 15.7 29 Noroeste 45 Noroeste 0 -- -- 74
2019-04-22 00:00:00 15.7 27 Noroeste 39 Noroeste 0 -- -- 79
2019-04-21 23:00:00 15.9 26 Noroeste 41 Noroeste 0 -- -- 82
2019-04-21 22:00:00 16 22 Noroeste 39 Noroeste 0 -- -- 79
2019-04-21 21:00:00 16.1 26 Noroeste 35 Norte 0 -- -- 78
2019-04-21 20:00:00 16.4 17 Noroeste 31 Norte 0 -- -- 81
2019-04-21 19:00:00 17 18 Noroeste 32 Noroeste 0 -- -- 78
2019-04-21 18:00:00 17.3 21 Norte 39 Norte 0 -- -- 75
2019-04-21 17:00:00 17.7 24 Norte 39 Noroeste 0 -- -- 73
2019-04-21 16:00:00 18 27 Norte 41 Noroeste 0 -- -- 72
2019-04-21 15:00:00 18.1 25 Norte 39 Norte 0 -- -- 70
2019-04-21 14:00:00 17.7 24 Norte 40 Norte 0 -- -- 72
2019-04-21 13:00:00 17.9 27 Norte 45 Norte 0 -- -- 69
2019-04-21 12:00:00 16.7 26 Norte 41 Noroeste 0 -- -- 77
2019-04-21 11:00:00 16.4 25 Noroeste 43 Noroeste 0 -- -- 79
2019-04-21 10:00:00 16.1 21 Noroeste 38 Norte 0 -- -- 77
2019-04-21 09:00:00 15.4 23 Noroeste 33 Norte 0 -- -- 80
2019-04-21 08:00:00 14.6 17 Noroeste 30 Noroeste 0 -- -- 82
2019-04-21 07:00:00 14.7 15 Noroeste 31 Norte 0 -- -- 82
2019-04-21 06:00:00 14.7 15 Norte 31 Norte 0 -- -- 81
2019-04-21 05:00:00 14.7 18 Norte 32 Norte 0 -- -- 79
2019-04-21 04:00:00 14.4 17 Norte 25 Norte 0 -- -- 79
2019-04-21 03:00:00 14.5 15 Norte 22 Norte 0 -- -- 81
2019-04-21 02:00:00 14.4 13 Norte 27 Norte 0 -- -- 81
2019-04-21 01:00:00 15 18 Norte 27 Norte 0 -- -- 80
2019-04-21 00:00:00 15.1 19 Norte 32 Norte 0 -- -- 82
2019-04-20 23:00:00 15.3 19 Norte 31 Norte 0 -- -- 82
2019-04-20 22:00:00 15.4 23 Norte 33 Norte 0 -- -- 83
2019-04-20 21:00:00 15.6 18 Norte 32 Norte 0 -- -- 80
2019-04-20 20:00:00 16 22 Norte 37 Norte 0 -- -- 78
2019-04-20 19:00:00 16.7 21 Norte 37 Norte 0 -- -- 71
2019-04-20 18:00:00 17.4 23 Norte 41 Noroeste 0 -- -- 69
2019-04-20 17:00:00 18.1 27 Noroeste 40 Noroeste 0 -- -- 68
2019-04-20 16:00:00 17.5 24 Norte 39 Norte 0 -- -- 71
2019-04-20 15:00:00 17.5 26 Noroeste 41 Noroeste 0 -- -- 67
2019-04-20 14:00:00 17.7 24 Norte 41 Norte 0 -- -- 66
2019-04-20 13:00:00 17.6 27 Norte 44 Noroeste 0 -- -- 65
2019-04-20 12:00:00 16.8 24 Norte 39 Norte 0 -- -- 69
2019-04-20 11:00:00 16 27 Norte 42 Norte 0 -- -- 70
2019-04-20 10:00:00 15.9 27 Norte 42 Norte 0 -- -- 73
2019-04-20 09:00:00 15 27 Norte 42 Norte 0 -- -- 81
2019-04-20 08:00:00 14.8 23 Norte 38 Norte 0 -- -- 75
2019-04-20 07:00:00 14.6 21 Norte 37 Norte 0 -- -- 79
2019-04-20 06:00:00 14.4 23 Norte 37 Norte 0 -- -- 75
2019-04-20 05:00:00 14.6 22 Norte 37 Norte 0 -- -- 75
2019-04-20 04:00:00 14.8 21 Norte 40 Norte 0 -- -- 77
2019-04-20 03:00:00 14.7 22 Norte 38 Norte 0 -- -- 73
2019-04-20 02:00:00 14.8 25 Norte 39 Norte 0 -- -- 76
2019-04-20 01:00:00 15 27 Norte 40 Norte 0 -- -- 75
2019-04-20 00:00:00 15.1 22 Norte 41 Norte 0 -- -- 74
2019-04-19 23:00:00 15.2 26 Norte 48 Norte 0 -- -- 75
2019-04-19 22:00:00 15.2 27 Noroeste 42 Noroeste 0 -- -- 77
2019-04-19 21:00:00 15.4 21 Norte 45 Norte 0 -- -- 75
2019-04-19 20:00:00 15.8 23 Norte 42 Norte 0 -- -- 73
2019-04-19 19:00:00 16 22 Norte 46 Norte 0 -- -- 76
2019-04-19 18:00:00 17.4 28 Norte 42 Noroeste 0 -- -- 68
2019-04-19 17:00:00 17.8 27 Norte 41 Norte 0 -- -- 65
2019-04-19 16:00:00 18.2 27 Norte 46 Norte 0 -- -- 61
2019-04-19 15:00:00 18.4 28 Norte 44 Norte 0 -- -- 55
2019-04-19 14:00:00 18.4 28 Norte 46 Norte 0 -- -- 57
2019-04-19 13:00:00 18.2 29 Norte 44 Nordeste 0 -- -- 59
2019-04-19 12:00:00 16.7 27 Norte 42 Norte 0 -- -- 67
2019-04-19 11:00:00 16.2 25 Norte 43 Norte 0 -- -- 70
2019-04-19 10:00:00 16.5 27 Norte 50 Norte 0 -- -- 68
2019-04-19 09:00:00 15.2 27 Norte 41 Norte 0 -- -- 75
2019-04-19 08:00:00 14.7 25 Norte 40 Norte 0 -- -- 76
2019-04-19 07:00:00 14.5 26 Norte 40 Norte 0 -- -- 74
2019-04-19 06:00:00 14.3 21 Norte 37 Norte 0 -- -- 75
2019-04-19 05:00:00 14.2 22 Norte 37 Norte 0 -- -- 73
2019-04-19 04:00:00 14.2 20 Norte 37 Norte 0 -- -- 83
2019-04-19 03:00:00 14.6 21 Norte 44 Norte 0 -- -- 71
2019-04-19 02:00:00 15 28 Norte 40 Norte 0 -- -- 74
2019-04-19 01:00:00 14.9 26 Norte 38 Norte 0 -- -- 75
2019-04-19 00:00:00 14.8 26 Norte 40 Norte 0 -- -- 71
2019-04-18 23:00:00 14.7 23 Norte 39 Norte 0 -- -- 69
2019-04-18 22:00:00 14.9 26 Norte 40 Norte 0 -- -- 70
2019-04-18 21:00:00 15.1 22 Norte 38 Norte 0 -- -- 69
2019-04-18 20:00:00 15.7 25 Norte 41 Norte 0 -- -- 66
2019-04-18 19:00:00 16.4 26 Norte 40 Norte 0 -- -- 66
2019-04-18 18:00:00 16.8 23 Norte 41 Norte 0 -- -- 62
2019-04-18 17:00:00 17.5 26 Norte 42 Norte 0 -- -- 58
2019-04-18 16:00:00 17.8 27 Norte 44 Norte 0 -- -- 59
2019-04-18 15:00:00 18 26 Norte 39 Noroeste 0 -- -- 63
2019-04-18 14:00:00 17.8 25 Norte 40 Norte 0 -- -- 62
2019-04-18 13:00:00 17.6 27 Norte 44 Norte 0 -- -- 61
2019-04-18 12:00:00 17.5 27 Norte 39 Norte 0 -- -- 59
2019-04-18 11:00:00 17 27 Norte 41 Norte 0 -- -- 65
2019-04-18 10:00:00 16.2 26 Norte 38 Norte 0 -- -- 68
2019-04-18 09:00:00 15.6 20 Norte 31 Norte 0 -- -- 72
2019-04-18 08:00:00 15.1 19 Norte 31 Norte 0 -- -- 76
2019-04-18 07:00:00 14.9 19 Norte 28 Norte 0 -- -- 76
2019-04-18 06:00:00 15 17 Norte 31 Norte 0 -- -- 78
2019-04-18 05:00:00 15.2 17 Norte 30 Norte 0 -- -- 78
2019-04-18 04:00:00 15.2 18 Noroeste 27 Noroeste 0 -- -- 78
2019-04-18 03:00:00 15.2 17 Noroeste 29 Noroeste 0 -- -- 77
2019-04-18 02:00:00 15.4 17 Noroeste 29 Norte 0 -- -- 77
2019-04-18 01:00:00 15.6 19 Noroeste 37 Noroeste 0 -- -- 75
2019-04-18 00:00:00 16 15 Noroeste 26 Noroeste 0 -- -- 79
2019-04-17 23:00:00 16 14 Noroeste 24 Norte 0 -- -- 79
2019-04-17 22:00:00 16.1 15 Noroeste 26 Norte 0 -- -- 79
2019-04-17 21:00:00 16.2 15 Noroeste 29 Noroeste 0 -- -- 77
2019-04-17 20:00:00 16.8 15 Noroeste 30 Noroeste 0 -- -- 77
2019-04-17 19:00:00 17.4 16 Noroeste 32 Noroeste 0 -- -- 72
2019-04-17 18:00:00 18 18 Noroeste 34 Noroeste 0 -- -- 72
2019-04-17 17:00:00 18.7 18 Noroeste 35 Noroeste 0 -- -- 67
2019-04-17 16:00:00 19.4 20 Noroeste 33 Norte 0 -- -- 68
2019-04-17 15:00:00 20.1 20 Noroeste 36 Oeste 0 -- -- 67
2019-04-17 14:00:00 18.2 30 Oeste 44 Oeste 0 -- -- 84
2019-04-17 13:00:00 20.8 23 Oeste 37 Oeste 0 -- -- 59
2019-04-17 12:00:00 20.4 21 Oeste 35 Oeste 0 -- -- 58
2019-04-17 11:00:00 18.4 17 Noroeste 30 Noroeste 0 -- -- 71
2019-04-17 10:00:00 17.3 17 Oeste 26 Oeste 0 -- -- 73
2019-04-17 09:00:00 16.3 12 Oeste 17 Oeste 0 -- -- 77
2019-04-17 08:00:00 14.8 2 Oeste 11 Oeste 0 -- -- 82
2019-04-17 07:00:00 14.1 6 Oeste 12 Oeste 0 -- -- 84
2019-04-17 06:00:00 14.8 7 Oeste 13 Noroeste 0 -- -- 88
2019-04-17 05:00:00 14.7 8 Noroeste 12 Noroeste 0 -- -- 90
2019-04-17 04:00:00 14.6 5 Noroeste 10 Noroeste 0 -- -- 89
2019-04-17 03:00:00 15.2 3 Oeste 16 Noroeste 0 -- -- 89
2019-04-17 02:00:00 15.8 13 Noroeste 19 Noroeste 0 -- -- 88
2019-04-17 01:00:00 15.3 5 Noroeste 7 Noroeste 0 -- -- 88
2019-04-17 00:00:00 15.8 5 Noroeste 20 Noroeste 0 -- -- 87
2019-04-16 23:00:00 15.9 12 Noroeste 17 Noroeste 0 -- -- 87
2019-04-16 22:00:00 16 9 Noroeste 13 Noroeste 0 -- -- 85
2019-04-16 21:00:00 16.4 8 Norte 16 Norte 0 -- -- 82
2019-04-16 20:00:00 17.4 8 Norte 14 Noroeste 0 -- -- 77
2019-04-16 19:00:00 18.8 9 Norte 16 Norte 0 -- -- 73
2019-04-16 18:00:00 19 11 Norte 22 Noroeste 0 -- -- 72
2019-04-16 17:00:00 19.2 14 Norte 23 Noroeste 0 -- -- 70
2019-04-16 16:00:00 20 16 Norte 27 Noroeste 0 -- -- 68
2019-04-16 15:00:00 22.2 13 Norte 25 Noroeste 0 -- -- 58
2019-04-16 14:00:00 23.4 13 Sudeste 33 Sudeste 0 -- -- 42
2019-04-16 13:00:00 22 12 Norte 22 Nordeste 0 -- -- 58
2019-04-16 12:00:00 19.6 10 Nordeste 23 Norte 0 -- -- 67
2019-04-16 11:00:00 18.5 10 Norte 19 Norte 0 -- -- 70
2019-04-16 10:00:00 16.8 9 Nordeste 17 Este 0 -- -- 77
2019-04-16 09:00:00 15.1 9 Nordeste 15 Nordeste 0 -- -- 91
2019-04-16 08:00:00 12.4 0 Calma 7 Este 0 -- -- 92
2019-04-16 07:00:00 13.3 4 Este 9 Nordeste 0 -- -- 91
2019-04-16 06:00:00 13.7 3 Este 25 Nordeste 0 -- -- 92
2019-04-16 05:00:00 14.9 15 Nordeste 25 Nordeste 0 -- -- 92
2019-04-16 04:00:00 14.8 13 Nordeste 21 Nordeste 0 -- -- 88
2019-04-16 03:00:00 13.6 3 Nordeste 6 Nordeste 0 -- -- 87
2019-04-16 02:00:00 14.1 4 Este 11 Nordeste 0 -- -- 89
2019-04-16 01:00:00 15.1 11 Nordeste 23 Nordeste 0 -- -- 89
2019-04-16 00:00:00 15.7 19 Nordeste 33 Nordeste 0 -- -- 88
2019-04-15 23:00:00 16.1 17 Nordeste 31 Nordeste 0 -- -- 86
2019-04-15 22:00:00 16.2 17 Nordeste 26 Nordeste 0 -- -- 85
2019-04-15 21:00:00 16.5 14 Nordeste 28 Nordeste 0 -- -- 85
2019-04-15 20:00:00 17.3 18 Norte 30 Norte 0 -- -- 79
2019-04-15 19:00:00 18.4 19 Norte 33 Norte 0 -- -- 74
2019-04-15 18:00:00 19.4 23 Norte 35 Norte 0 -- -- 67
2019-04-15 17:00:00 19.8 24 Nordeste 35 Nordeste 0 -- -- 65
2019-04-15 16:00:00 19.9 21 Nordeste 37 Norte 0 -- -- 63
2019-04-15 15:00:00 20.8 19 Norte 35 Nordeste 0 -- -- 61
2019-04-15 14:00:00 20.5 19 Norte 32 Nordeste 0 -- -- 61
2019-04-15 13:00:00 19.9 18 Nordeste 35 Norte 0 -- -- 63
2019-04-15 12:00:00 19.4 23 Nordeste 35 Este 0 -- -- 61
2019-04-15 11:00:00 18.6 21 Nordeste 34 Norte 0 -- -- 63
2019-04-15 10:00:00 16.6 19 Norte 27 Norte 0 -- -- 79
2019-04-15 09:00:00 15.9 18 Norte 25 Norte 0 -- -- 81
2019-04-15 08:00:00 14.9 11 Norte 19 Norte 0 -- -- 82
2019-04-15 07:00:00 14.9 10 Norte 24 Noroeste 0 -- -- 80
2019-04-15 06:00:00 14.8 11 Noroeste 21 Norte 0 -- -- 81
2019-04-15 05:00:00 15.2 12 Noroeste 26 Norte 0 -- -- 77
2019-04-15 04:00:00 15.5 15 Noroeste 28 Norte 0 -- -- 80
2019-04-15 03:00:00 15.5 19 Noroeste 31 Noroeste 0 -- -- 82
2019-04-15 02:00:00 15.4 16 Noroeste 24 Noroeste 0 -- -- 85
2019-04-15 01:00:00 15.5 12 Noroeste 28 Noroeste 0 -- -- 85
2019-04-15 00:00:00 15.6 17 Noroeste 24 Noroeste 0 -- -- 86
2019-04-14 23:00:00 15.6 10 Noroeste 27 Noroeste 0 -- -- 86
2019-04-14 22:00:00 16.1 19 Noroeste 28 Noroeste 0 -- -- 84
2019-04-14 21:00:00 16.1 13 Noroeste 21 Noroeste 0 -- -- 84
2019-04-14 20:00:00 16.6 15 Noroeste 25 Noroeste 0 -- -- 81
2019-04-14 19:00:00 17.8 13 Noroeste 26 Norte 0 -- -- 76
2019-04-14 18:00:00 18.3 15 Noroeste 27 Norte 0 -- -- 75
2019-04-14 17:00:00 19.8 16 Noroeste 26 Noroeste 0 -- -- 69
2019-04-14 16:00:00 19.4 14 Norte 24 Noroeste 0 -- -- 71
2019-04-14 15:00:00 20.2 12 Norte 22 Noroeste 0 -- -- 69
2019-04-14 14:00:00 20.4 14 Norte 22 Norte 0 -- -- 68
2019-04-14 13:00:00 20.9 11 Noroeste 22 Noroeste 0 -- -- 66
2019-04-14 12:00:00 20.9 14 Noroeste 21 Noroeste 0 -- -- 65
2019-04-14 11:00:00 19.6 6 Norte 21 Nordeste 0 -- -- 67
2019-04-14 10:00:00 16.8 18 Nordeste 23 Nordeste 0 -- -- 81
2019-04-14 09:00:00 15.3 11 Nordeste 21 Nordeste 0 -- -- 89
2019-04-14 08:00:00 14.5 14 Nordeste 27 Nordeste 0 -- -- 91
2019-04-14 07:00:00 14.4 20 Nordeste 29 Nordeste 0 -- -- 90
2019-04-14 06:00:00 14.4 15 Nordeste 29 Nordeste 0 -- -- 91
2019-04-14 05:00:00 14.5 15 Nordeste 28 Norte 0 -- -- 91
2019-04-14 04:00:00 14.5 17 Nordeste 27 Nordeste 0 -- -- 92
2019-04-14 03:00:00 14.5 13 Nordeste 39 Nordeste 0 -- -- 91
2019-04-14 02:00:00 14.6 20 Nordeste 40 Norte 0 -- -- 90
2019-04-14 01:00:00 14.7 24 Nordeste 42 Nordeste 0 -- -- 90
2019-04-14 00:00:00 14.8 23 Nordeste 42 Nordeste 0 -- -- 89
2019-04-13 23:00:00 15 26 Nordeste 39 Nordeste 0 -- -- 87
2019-04-13 22:00:00 15.2 25 Nordeste 39 Norte 0 -- -- 85
2019-04-13 21:00:00 15.4 23 Norte 44 Norte 0 -- -- 84
2019-04-13 20:00:00 15.8 31 Norte 44 Norte 0 -- -- 81
2019-04-13 19:00:00 16.8 27 Norte 40 Norte 0 -- -- 77
2019-04-13 18:00:00 17.3 26 Norte 40 Norte 0 -- -- 72
2019-04-13 17:00:00 18.2 28 Norte 59 Norte 0 -- -- 68
2019-04-13 16:00:00 18.8 27 Norte 41 Norte 0 -- -- 65
2019-04-13 15:00:00 18.7 29 Norte 41 Norte 0 -- -- 65
2019-04-13 14:00:00 18.6 26 Norte 44 Nordeste 0 -- -- 63
2019-04-13 13:00:00 18.2 27 Nordeste 49 Norte 0 -- -- 67
2019-04-13 12:00:00 17.8 27 Norte 51 Norte 0 -- -- 68
2019-04-13 11:00:00 17.1 27 Nordeste 53 Nordeste 0 -- -- 69
2019-04-13 10:00:00 15.8 28 Nordeste 45 Norte 0 -- -- 74
2019-04-13 09:00:00 14.9 26 Nordeste 45 Norte 0 -- -- 78
2019-04-13 08:00:00 14.3 17 Nordeste 38 Nordeste 0 -- -- 82
2019-04-13 07:00:00 14.2 20 Nordeste 40 Nordeste 0 -- -- 80
2019-04-13 06:00:00 14.1 19 Norte 45 Norte 0 -- -- 80
2019-04-13 05:00:00 14.3 26 Norte 43 Norte 0 -- -- 77
2019-04-13 04:00:00 14.4 23 Norte 42 Norte 0 -- -- 79
2019-04-13 03:00:00 14.3 25 Nordeste 41 Norte 0 -- -- 77
2019-04-13 02:00:00 14.4 27 Norte 46 Nordeste 0 -- -- 75
2019-04-13 01:00:00 14.6 27 Norte 42 Norte 0 -- -- 74
2019-04-13 00:00:00 14.5 29 Norte 45 Norte 0 -- -- 75
2019-04-12 23:00:00 14.9 26 Norte 44 Nordeste 0 -- -- 73
2019-04-12 22:00:00 15 30 Norte 44 Norte 0 -- -- 73
2019-04-12 21:00:00 15.2 26 Norte 44 Norte 0 -- -- 72
2019-04-12 20:00:00 15.6 30 Norte 51 Nordeste 0 -- -- 69
2019-04-12 19:00:00 16.6 30 Norte 45 Norte 0 -- -- 70
2019-04-12 18:00:00 17.3 30 Norte 48 Norte 0 -- -- 66
2019-04-12 17:00:00 17.6 33 Norte 50 Norte 0 -- -- 61
2019-04-12 16:00:00 17.8 33 Norte 55 Nordeste 0 -- -- 62
2019-04-12 15:00:00 18 36 Norte 55 Norte 0 -- -- 57
2019-04-12 14:00:00 17.6 32 Norte 50 Norte 0 -- -- 57
2019-04-12 13:00:00 17.5 33 Nordeste 59 Nordeste 0 -- -- 59
2019-04-12 12:00:00 17.5 28 Nordeste 47 Nordeste 0 -- -- 58
2019-04-12 11:00:00 16.3 32 Norte 51 Nordeste 0 -- -- 61
2019-04-12 10:00:00 15.4 35 Norte 59 Norte 0 -- -- 64
2019-04-12 09:00:00 14.9 29 Nordeste 46 Nordeste 0 -- -- 69
2019-04-12 08:00:00 14.5 22 Nordeste 52 Nordeste 0 -- -- 74
2019-04-12 07:00:00 14.3 25 Nordeste 45 Norte 0 -- -- 71
2019-04-12 06:00:00 14.1 23 Norte 39 Norte 0 -- -- 71
2019-04-12 05:00:00 13.9 28 Nordeste 50 Nordeste 0 -- -- 71
2019-04-12 04:00:00 14.1 25 Norte 47 Nordeste 0 -- -- 71
2019-04-12 03:00:00 14.5 26 Norte 41 Norte 0 -- -- 73
2019-04-12 02:00:00 14.5 28 Norte 46 Norte 0 -- -- 70
2019-04-12 01:00:00 14.5 31 Norte 48 Norte 0 -- -- 71
2019-04-12 00:00:00 14.7 33 Norte 50 Norte 0 -- -- 67
2019-04-11 23:00:00 14.8 33 Norte 46 Norte 0 -- -- 67
2019-04-11 22:00:00 14.8 31 Norte 47 Nordeste 0 -- -- 69
2019-04-11 21:00:00 14.8 28 Norte 57 Nordeste 0 -- -- 71
2019-04-11 20:00:00 15.3 31 Norte 50 Nordeste 0 -- -- 72
2019-04-11 19:00:00 15.6 30 Norte 51 Norte 0 -- -- 68
2019-04-11 18:00:00 16.1 31 Norte 51 Norte 0 -- -- 65
2019-04-11 17:00:00 17.1 34 Norte 51 Norte 0 -- -- 62
2019-04-11 16:00:00 17.3 32 Norte 62 Nordeste 0 -- -- 61
2019-04-11 15:00:00 17.4 30 Norte 48 Norte 0 -- -- 61
2019-04-11 14:00:00 17.5 29 Norte 50 Nordeste 0 -- -- 63
2019-04-11 13:00:00 17.4 31 Norte 50 Nordeste 0 -- -- 59
2019-04-11 12:00:00 16.5 32 Nordeste 54 Nordeste 0 -- -- 66
2019-04-11 11:00:00 16.3 31 Nordeste 54 Nordeste 0 -- -- 64
2019-04-11 10:00:00 15.9 32 Norte 53 Norte 0 -- -- 64
2019-04-11 09:00:00 15.1 30 Norte 48 Nordeste 0 -- -- 72
2019-04-11 08:00:00 14.7 28 Nordeste 49 Norte 0 -- -- 71
2019-04-11 07:00:00 14.6 28 Norte 52 Norte 0 -- -- 70
2019-04-11 06:00:00 14.6 26 Norte 48 Nordeste 0 -- -- 72
2019-04-11 05:00:00 14.6 23 Norte 45 Nordeste 0 -- -- 74
2019-04-11 04:00:00 14.6 25 Norte 52 Nordeste 0 -- -- 72
2019-04-11 03:00:00 14.4 31 Nordeste 52 Norte 0 -- -- 71
2019-04-11 02:00:00 14.4 26 Norte 54 Nordeste 0 -- -- 73
2019-04-11 01:00:00 14.7 28 Norte 45 Nordeste 0 -- -- 70
2019-04-11 00:00:00 14.8 31 Norte 48 Norte 0 -- -- 71
2019-04-10 23:00:00 14.9 29 Norte 44 Norte 0 -- -- 72
2019-04-10 22:00:00 15.2 27 Norte 42 Norte 0 -- -- 72
2019-04-10 21:00:00 14.9 29 Norte 50 Norte 0 -- -- 68
2019-04-10 20:00:00 15.6 30 Norte 48 Norte 0 -- -- 74
2019-04-10 19:00:00 16.2 35 Norte 53 Norte 0 -- -- 66
2019-04-10 18:00:00 16.2 33 Norte 51 Norte 0 -- -- 71
2019-04-10 17:00:00 17 34 Norte 60 Norte 0 -- -- 62
2019-04-10 16:00:00 17.2 35 Norte 54 Norte 0 -- -- 64
2019-04-10 15:00:00 17.6 38 Norte 56 Norte 0 -- -- 61
2019-04-10 14:00:00 16.5 32 Norte 48 Norte 0 -- -- 68
2019-04-10 13:00:00 16.8 31 Norte 52 Norte 0 -- -- 65
2019-04-10 12:00:00 17 29 Norte 46 Nordeste 0 -- -- 66
2019-04-10 11:00:00 16 25 Norte 47 Norte 0 -- -- 68
2019-04-10 10:00:00 15.9 30 Norte 51 Norte 0 -- -- 59
2019-04-10 09:00:00 15.3 24 Norte 48 Nordeste 0 -- -- 65
2019-04-10 08:00:00 14.5 26 Nordeste 49 Nordeste 0 -- -- 64
2019-04-10 07:00:00 14.4 27 Norte 42 Norte 0 -- -- 68
2019-04-10 06:00:00 14.3 27 Norte 45 Norte 0 -- -- 67
2019-04-10 05:00:00 14.3 24 Norte 44 Norte 0 -- -- 65
2019-04-10 04:00:00 14.4 31 Norte 49 Norte 0 -- -- 64
2019-04-10 03:00:00 14.5 30 Norte 53 Norte 0 -- -- 67
2019-04-10 02:00:00 14.7 23 Norte 42 Nordeste 0 -- -- 71
2019-04-10 01:00:00 14.6 23 Norte 47 Norte 0 -- -- 66
2019-04-10 00:00:00 14.7 26 Nordeste 42 Norte 0 -- -- 67
2019-04-09 23:00:00 14.8 25 Nordeste 40 Nordeste 0 -- -- 67
2019-04-09 22:00:00 14.8 22 Norte 45 Norte 0 -- -- 71
2019-04-09 21:00:00 15 25 Nordeste 46 Norte 0 -- -- 65
2019-04-09 20:00:00 15.4 24 Norte 39 Norte 0 -- -- 66
2019-04-09 19:00:00 16.2 28 Norte 45 Norte 0 -- -- 63
2019-04-09 18:00:00 17.2 29 Norte 42 Norte 0 -- -- 61
2019-04-09 17:00:00 17.1 28 Norte 42 Norte 0 -- -- 65
2019-04-09 16:00:00 17.4 26 Norte 39 Norte 0 -- -- 70
2019-04-09 15:00:00 17.3 28 Norte 41 Nordeste 0 -- -- 69
2019-04-09 14:00:00 17.1 27 Norte 40 Norte 0 -- -- 70
2019-04-09 13:00:00 17.1 24 Norte 37 Norte 0 -- -- 72
2019-04-09 12:00:00 16.7 26 Norte 40 Nordeste 0 -- -- 76
2019-04-09 11:00:00 16.9 22 Norte 33 Norte 0 -- -- 71
2019-04-09 10:00:00 16.3 21 Norte 35 Norte 0 -- -- 71
2019-04-09 09:00:00 15.5 24 Nordeste 41 Norte 0 -- -- 77
2019-04-09 08:00:00 15.1 20 Nordeste 36 Nordeste 0.4 -- -- 87
2019-04-09 07:00:00 15.5 13 Norte 19 Norte 0 -- -- 87
2019-04-09 06:00:00 15.2 12 Norte 24 Norte 0 -- -- 86
2019-04-09 05:00:00 14.9 14 Norte 26 Nordeste 0 -- -- 85
2019-04-09 04:00:00 14.6 13 Norte 21 Norte 0 -- -- 84
2019-04-09 03:00:00 14.8 12 Norte 25 Norte 0 -- -- 82
2019-04-09 02:00:00 15.1 13 Norte 21 Norte 0 -- -- 79
2019-04-09 01:00:00 15.1 14 Norte 23 Norte 0 -- -- 80
2019-04-09 00:00:00 15.3 14 Norte 24 Norte 0 -- -- 74
2019-04-08 23:00:00 15.2 14 Norte 27 Norte 0 -- -- 71
2019-04-08 22:00:00 15.5 19 Norte 30 Norte 0 -- -- 64
2019-04-08 21:00:00 15.5 18 Norte 31 Norte 0 -- -- 63
2019-04-08 20:00:00 15.9 19 Norte 34 Norte 0 -- -- 61
2019-04-08 19:00:00 16.8 20 Norte 33 Norte 0 -- -- 60
2019-04-08 18:00:00 17.7 22 Norte 35 Norte 0 -- -- 56
2019-04-08 17:00:00 17.9 23 Norte 39 Norte 0 -- -- 57
2019-04-08 16:00:00 18.1 20 Noroeste 34 Norte 0 -- -- 57
2019-04-08 15:00:00 17.6 22 Norte 35 Noroeste 0 -- -- 61
2019-04-08 14:00:00 17.7 17 Norte 36 Norte 0 -- -- 63
2019-04-08 13:00:00 17.9 19 Norte 32 Norte 0 -- -- 62
2019-04-08 12:00:00 17.8 17 Norte 28 Norte 0 -- -- 69
2019-04-08 11:00:00 17.1 16 Norte 24 Norte 0 -- -- 69
2019-04-08 10:00:00 16 13 Norte 19 Norte 0 -- -- 81
2019-04-08 09:00:00 15.2 11 Norte 18 Norte 0 -- -- 86
2019-04-08 08:00:00 14.7 9 Norte 15 Norte 0 -- -- 88
2019-04-08 07:00:00 14.6 5 Norte 15 Noroeste 0 -- -- 90
2019-04-08 06:00:00 14.3 12 Norte 29 Norte 0 -- -- 89
2019-04-08 05:00:00 14.2 16 Norte 23 Norte 0.2 -- -- 89
2019-04-08 04:00:00 14.8 12 Noroeste 20 Noroeste 0 -- -- 88
2019-04-08 03:00:00 14.9 11 Norte 20 Norte 0 -- -- 83
2019-04-08 02:00:00 15 10 Norte 20 Norte 0 -- -- 84
2019-04-08 01:00:00 15 10 Norte 21 Norte 0 -- -- 81
2019-04-08 00:00:00 15.5 13 Norte 28 Noroeste 0 -- -- 81
2019-04-07 23:00:00 15.5 15 Noroeste 23 Noroeste 0 -- -- 80
2019-04-07 22:00:00 15.6 14 Noroeste 23 Noroeste 0 -- -- 81
2019-04-07 21:00:00 15.9 12 Norte 27 Norte 0 -- -- 79
2019-04-07 20:00:00 16.4 20 Noroeste 30 Noroeste 0 -- -- 78
2019-04-07 19:00:00 17.1 17 Noroeste 30 Noroeste 0 -- -- 75
2019-04-07 18:00:00 17.7 17 Noroeste 31 Noroeste 0 -- -- 70
2019-04-07 17:00:00 18.4 21 Noroeste 36 Oeste 0 -- -- 67
2019-04-07 16:00:00 18.8 20 Noroeste 32 Noroeste 0 -- -- 64
2019-04-07 15:00:00 18.1 17 Noroeste 35 Norte 0 -- -- 68
2019-04-07 14:00:00 18.1 19 Norte 33 Norte 0 -- -- 66
2019-04-07 13:00:00 17.8 21 Norte 36 Norte 0 -- -- 70
2019-04-07 12:00:00 17.3 22 Norte 35 Noroeste 0 -- -- 70
2019-04-07 11:00:00 16.4 21 Noroeste 33 Norte 0 -- -- 77
2019-04-07 10:00:00 16.1 21 Noroeste 31 Noroeste 0 -- -- 80
2019-04-07 09:00:00 14.9 13 Noroeste 22 Noroeste 0 -- -- 83
2019-04-07 08:00:00 14.3 15 Noroeste 35 Noroeste 0 -- -- 85
2019-04-07 07:00:00 14.8 15 Noroeste 23 Noroeste 0 -- -- 80
2019-04-07 06:00:00 14.6 13 Noroeste 22 Noroeste 0 -- -- 77
2019-04-07 05:00:00 14.3 9 Noroeste 22 Noroeste 0 -- -- 78
2019-04-07 04:00:00 14.1 12 Noroeste 26 Norte 0 -- -- 77
2019-04-07 03:00:00 14.1 8 Noroeste 18 Norte 0 -- -- 77
2019-04-07 02:00:00 13.5 3 Norte 16 Norte 0 -- -- 82
2019-04-07 01:00:00 14.2 12 Norte 22 Norte 0 -- -- 80
2019-04-07 00:00:00 14.7 14 Norte 22 Norte 0 -- -- 70
2019-04-06 23:00:00 14.5 15 Norte 30 Norte 0 -- -- 68
2019-04-06 22:00:00 14.7 18 Norte 32 Norte 0 -- -- 66
2019-04-06 21:00:00 14.8 17 Norte 31 Norte 0 -- -- 67
2019-04-06 20:00:00 15.3 19 Norte 38 Noroeste 0 -- -- 67
2019-04-06 19:00:00 15.8 26 Noroeste 41 Noroeste 0 -- -- 64
2019-04-06 18:00:00 16.5 25 Noroeste 43 Noroeste 0 -- -- 60
2019-04-06 17:00:00 16.7 24 Norte 45 Noroeste 0 -- -- 60
2019-04-06 16:00:00 16.9 24 Norte 42 Noroeste 0 -- -- 59
2019-04-06 15:00:00 16.8 24 Norte 45 Noroeste 0 -- -- 62
2019-04-06 14:00:00 16.3 24 Norte 41 Oeste 0 -- -- 63
2019-04-06 13:00:00 16.2 22 Noroeste 39 Noroeste 0 -- -- 60
2019-04-06 12:00:00 16.2 22 Norte 40 Noroeste 0 -- -- 67
2019-04-06 11:00:00 15.4 23 Noroeste 44 Norte 0 -- -- 63
2019-04-06 10:00:00 14.5 24 Noroeste 39 Noroeste 0 -- -- 71
2019-04-06 09:00:00 13.9 22 Noroeste 46 Noroeste 0 -- -- 68
2019-04-06 08:00:00 13 24 Noroeste 44 Norte 0 -- -- 74
2019-04-06 07:00:00 13.3 27 Noroeste 49 Noroeste 0 -- -- 77
2019-04-06 06:00:00 13.2 22 Noroeste 43 Noroeste 0 -- -- 71
2019-04-06 05:00:00 13.2 23 Noroeste 40 Norte 0 -- -- 70
2019-04-06 04:00:00 12.9 18 Norte 40 Noroeste 0 -- -- 74
2019-04-06 03:00:00 13.2 20 Norte 38 Noroeste 0 -- -- 75
2019-04-06 02:00:00 13.4 22 Norte 34 Norte 0 -- -- 76
2019-04-06 01:00:00 13.3 15 Norte 39 Norte 0.2 -- -- 78
2019-04-06 00:00:00 13.4 12 Norte 31 Norte 0 -- -- 83
2019-04-05 23:00:00 13.5 19 Noroeste 48 Noroeste 0.2 -- -- 85
2019-04-05 22:00:00 14.2 19 Norte 31 Norte 0 -- -- 82
2019-04-05 21:00:00 13.9 15 Norte 39 Noroeste 0 -- -- 80
2019-04-05 20:00:00 15.4 26 Noroeste 40 Noroeste 0 -- -- 65
2019-04-05 19:00:00 15.7 24 Noroeste 41 Noroeste 0 -- -- 64
2019-04-05 18:00:00 15.7 27 Noroeste 39 Noroeste 0 -- -- 69
2019-04-05 17:00:00 15 22 Noroeste 41 Oeste 0 -- -- 78
2019-04-05 16:00:00 15.7 20 Noroeste 43 Oeste 1.2 -- -- 78
2019-04-05 15:00:00 16.4 24 Noroeste 46 Noroeste 0 -- -- 81
2019-04-05 14:00:00 18.1 25 Noroeste 45 Oeste 0 -- -- 65
2019-04-05 13:00:00 18.4 29 Noroeste 42 Oeste 0 -- -- 61
2019-04-05 12:00:00 18 28 Noroeste 42 Noroeste 0 -- -- 63
2019-04-05 11:00:00 16.7 25 Noroeste 36 Oeste 0 -- -- 65
2019-04-05 10:00:00 16.2 26 Noroeste 37 Oeste 0 -- -- 66
2019-04-05 09:00:00 15.1 15 Noroeste 28 Noroeste 0 -- -- 72
2019-04-05 08:00:00 14.4 17 Noroeste 28 Noroeste 0 -- -- 71
2019-04-05 07:00:00 14.1 21 Noroeste 31 Noroeste 0 -- -- 70
2019-04-05 06:00:00 14 15 Noroeste 37 Noroeste 0 -- -- 69
2019-04-05 05:00:00 14.4 27 Noroeste 36 Noroeste 0 -- -- 71
2019-04-05 04:00:00 14.2 24 Noroeste 31 Noroeste 0 -- -- 72
2019-04-05 03:00:00 13.9 17 Noroeste 47 Noroeste 0 -- -- 68
2019-04-05 02:00:00 14.6 22 Noroeste 34 Noroeste 0 -- -- 70
2019-04-05 01:00:00 14.5 18 Noroeste 29 Noroeste 0 -- -- 74
2019-04-05 00:00:00 14.6 17 Noroeste 32 Noroeste 0 -- -- 79
2019-04-04 23:00:00 14.5 15 Noroeste 27 Noroeste 0 -- -- 75
2019-04-04 22:00:00 14.6 16 Noroeste 31 Noroeste 0 -- -- 73
2019-04-04 21:00:00 15 17 Noroeste 32 Noroeste 0 -- -- 70
2019-04-04 20:00:00 15.4 18 Noroeste 30 Norte 0 -- -- 70
2019-04-04 19:00:00 15.9 18 Norte 32 Noroeste 0 -- -- 75
2019-04-04 18:00:00 16.9 18 Noroeste 28 Noroeste 0 -- -- 69
2019-04-04 17:00:00 16.4 22 Norte 35 Norte 0 -- -- 72
2019-04-04 16:00:00 16.5 21 Norte 33 Norte 0 -- -- 77
2019-04-04 15:00:00 17.5 17 Norte 27 Noroeste 0 -- -- 65
2019-04-04 14:00:00 16.6 18 Norte 31 Norte 0 -- -- 71
2019-04-04 13:00:00 17.2 15 Noroeste 29 Oeste 0 -- -- 66
2019-04-04 12:00:00 17.4 16 Noroeste 31 Noroeste 0 -- -- 68
2019-04-04 11:00:00 16.5 16 Noroeste 29 Noroeste 0 -- -- 68
2019-04-04 10:00:00 15.7 11 Norte 17 Norte 0 -- -- 75
2019-04-04 09:00:00 13.9 10 Norte 18 Nordeste 0 -- -- 87
2019-04-04 08:00:00 13.6 15 Norte 27 Norte 0 -- -- 88
2019-04-04 07:00:00 14 10 Noroeste 18 Noroeste 0 -- -- 88
2019-04-04 06:00:00 13.8 5 Oeste 13 Oeste 0 -- -- 87
2019-04-04 05:00:00 13.6 6 Oeste 13 Oeste 0 -- -- 89
2019-04-04 04:00:00 13.2 9 Oeste 15 Oeste 0 -- -- 87
2019-04-04 03:00:00 13.1 9 Sudoeste 12 Sudoeste 0 -- -- 87
2019-04-04 02:00:00 13.6 10 Sudoeste 15 Sudoeste 0 -- -- 85
2019-04-04 01:00:00 12.9 10 Sudoeste 12 Sudoeste 0 -- -- 86
2019-04-04 00:00:00 13.4 5 Sudoeste 8 Sudoeste 0 -- -- 85
2019-04-03 23:00:00 13.9 3 Oeste 10 Noroeste 0 -- -- 81
2019-04-03 22:00:00 15.3 7 Noroeste 18 Noroeste 0 -- -- 79
2019-04-03 21:00:00 15.8 14 Noroeste 29 Noroeste 0 -- -- 80
2019-04-03 20:00:00 16.6 21 Noroeste 31 Noroeste 0 -- -- 73
2019-04-03 19:00:00 17.2 18 Noroeste 33 Noroeste 0 -- -- 71
2019-04-03 18:00:00 17.5 22 Noroeste 33 Noroeste 0 -- -- 71
2019-04-03 17:00:00 18.2 24 Noroeste 41 Noroeste 0 -- -- 70
2019-04-03 16:00:00 17.9 24 Noroeste 41 Noroeste 0 -- -- 70
2019-04-03 15:00:00 19.5 25 Oeste 36 Oeste 0 -- -- 63
2019-04-03 14:00:00 17.9 26 Noroeste 35 Noroeste 0 -- -- 77
2019-04-03 13:00:00 19.2 21 Noroeste 37 Oeste 0 -- -- 68
2019-04-03 12:00:00 18.2 18 Noroeste 27 Oeste 0 -- -- 75
2019-04-03 11:00:00 17.5 14 Oeste 21 Oeste 0 -- -- 79
2019-04-03 10:00:00 16.9 12 Noroeste 18 Oeste 0 -- -- 81
2019-04-03 09:00:00 15.5 8 Noroeste 13 Noroeste 0 -- -- 90
2019-04-03 08:00:00 14.3 6 Noroeste 12 Noroeste 0 -- -- 92
2019-04-03 07:00:00 14.2 7 Noroeste 10 Noroeste 0 -- -- 92
2019-04-03 06:00:00 14.4 8 Noroeste 13 Oeste 0 -- -- 92
2019-04-03 05:00:00 14.5 7 Oeste 13 Oeste 0 -- -- 92
2019-04-03 04:00:00 15.1 9 Oeste 17 Oeste 0 -- -- 92
2019-04-03 03:00:00 14.9 7 Oeste 10 Oeste 0 -- -- 90
2019-04-03 02:00:00 15.4 9 Noroeste 14 Noroeste 0 -- -- 91
2019-04-03 01:00:00 15.1 8 Noroeste 10 Noroeste 0 -- -- 88
2019-04-03 00:00:00 14.8 4 Noroeste 5 Noroeste 0 -- -- 81
2019-04-02 23:00:00 15.6 0 Calma 13 Noroeste 0 -- -- 89
2019-04-02 22:00:00 16.2 8 Noroeste 16 Norte 0 -- -- 89
2019-04-02 21:00:00 16.4 11 Norte 20 Norte 0 -- -- 87
2019-04-02 20:00:00 17 15 Norte 25 Norte 0 -- -- 82
2019-04-02 19:00:00 18.2 15 Norte 26 Noroeste 0 -- -- 76
2019-04-02 18:00:00 18.8 18 Norte 29 Norte 0 -- -- 72
2019-04-02 17:00:00 20.5 19 Norte 34 Noroeste 0 -- -- 66
2019-04-02 16:00:00 22.6 15 Norte 33 Noroeste 0 -- -- 52
2019-04-02 15:00:00 23.1 13 Oeste 30 Sudeste 0 -- -- 48
2019-04-02 14:00:00 22.1 19 Sudeste 34 Este 0 -- -- 48
2019-04-02 13:00:00 21.1 23 Este 35 Sudeste 0 -- -- 51
2019-04-02 12:00:00 20.3 24 Sudeste 40 Este 0 -- -- 50
2019-04-02 11:00:00 18.6 27 Este 39 Este 0 -- -- 64
2019-04-02 10:00:00 16.9 28 Este 40 Sudeste 0 -- -- 75
2019-04-02 09:00:00 15.6 25 Sudeste 37 Sudeste 0 -- -- 83
2019-04-02 08:00:00 14.6 23 Sudeste 39 Este 0 -- -- 86
2019-04-02 07:00:00 14.5 27 Sudeste 38 Sudeste 0 -- -- 85
2019-04-02 06:00:00 14.1 23 Sudeste 33 Este 0 -- -- 87
2019-04-02 05:00:00 13.6 22 Este 30 Este 0 -- -- 86
2019-04-02 04:00:00 13.6 15 Este 28 Este 0 -- -- 86
2019-04-02 03:00:00 13.7 18 Este 28 Este 0 -- -- 84
2019-04-02 02:00:00 12.5 4 Sudeste 6 Sudeste 0 -- -- 86
2019-04-02 01:00:00 13.1 2 Sur 7 Este 0 -- -- 86
2019-04-02 00:00:00 14 0 Calma 11 Sudeste 0 -- -- 84
2019-04-01 23:00:00 14.5 9 Este 14 Sudeste 0 -- -- 86
2019-04-01 22:00:00 14.7 9 Sudeste 12 Sudeste 0 -- -- 81
2019-04-01 21:00:00 15.9 5 Sudeste 12 Sudeste 0 -- -- 75
2019-04-01 20:00:00 16.4 9 Sudeste 19 Sudeste 0 -- -- 72
2019-04-01 19:00:00 17 12 Sudeste 22 Sudeste 0 -- -- 69
2019-04-01 18:00:00 17.2 17 Sudeste 28 Este 0 -- -- 68
2019-04-01 17:00:00 16.5 16 Este 23 Este 0 -- -- 75
2019-04-01 16:00:00 16.1 15 Este 18 Este 0 -- -- 80
2019-04-01 15:00:00 16.4 8 Norte 18 Noroeste 0 -- -- 75
2019-04-01 14:00:00 16.6 9 Nordeste 17 Este 0 -- -- 71
2019-04-01 13:00:00 17.4 11 Nordeste 19 Norte 0 -- -- 64
2019-04-01 12:00:00 17.4 9 Norte 15 Norte 0.8 -- -- 69
2019-04-01 11:00:00 16.7 6 Norte 13 Norte 0 -- -- 72
2019-04-01 10:00:00 15.8 7 Norte 16 Norte 0 -- -- 76
2019-04-01 09:00:00 15 5 Noroeste 12 Norte 0 -- -- 85
2019-04-01 08:00:00 14 4 Noroeste 11 Noroeste 0 -- -- 84
2019-04-01 07:00:00 14.2 7 Noroeste 14 Noroeste 0 -- -- 84
2019-04-01 06:00:00 14.5 8 Noroeste 14 Norte 0 -- -- 89
2019-04-01 05:00:00 14.7 11 Norte 21 Nordeste 0 -- -- 90
2019-04-01 04:00:00 14.8 5 Norte 19 Noroeste 0 -- -- 90
2019-04-01 03:00:00 15.5 3 Noroeste 15 Noroeste 0 -- -- 83
2019-04-01 02:00:00 15.4 8 Noroeste 12 Noroeste 0 -- -- 86
2019-04-01 01:00:00 15.5 4 Norte 12 Noroeste 0 -- -- 85
2019-04-01 00:00:00 15.7 9 Noroeste 13 Noroeste 0 -- -- 81
2019-03-31 23:00:00 15.8 9 Noroeste 16 Noroeste 0 -- -- 81
2019-03-31 22:00:00 15.6 9 Noroeste 21 Oeste 0 -- -- 82
2019-03-31 21:00:00 15.8 15 Noroeste 25 Noroeste 0 -- -- 79
2019-03-31 20:00:00 16.6 15 Oeste 30 Oeste 0 -- -- 72
2019-03-31 19:00:00 17.3 19 Oeste 31 Oeste 0 -- -- 70
2019-03-31 18:00:00 18.4 19 Noroeste 28 Oeste 0 -- -- 67
2019-03-31 17:00:00 18.4 19 Oeste 31 Oeste 0 -- -- 67
2019-03-31 16:00:00 18.9 19 Oeste 30 Oeste 0 -- -- 62
2019-03-31 15:00:00 19 16 Noroeste 31 Oeste 0 -- -- 64
2019-03-31 14:00:00 17.8 22 Oeste 31 Oeste 0 -- -- 70
2019-03-31 13:00:00 17.1 21 Oeste 31 Oeste 0 -- -- 81
2019-03-31 12:00:00 18.4 19 Noroeste 30 Oeste 0 -- -- 63
2019-03-31 11:00:00 17.8 17 Noroeste 27 Noroeste 0 -- -- 64
2019-03-31 10:00:00 17.1 17 Noroeste 24 Noroeste 0 -- -- 71
2019-03-31 09:00:00 15.2 9 Noroeste 14 Noroeste 0 -- -- 80
2019-03-31 08:00:00 13.7 7 Noroeste 15 Noroeste 0 -- -- 83
2019-03-31 07:00:00 14.3 11 Noroeste 23 Oeste 0 -- -- 80
2019-03-31 06:00:00 14.8 12 Noroeste 24 Oeste 0 -- -- 80
2019-03-31 05:00:00 14.7 13 Noroeste 19 Noroeste 0 -- -- 79
2019-03-31 04:00:00 14.8 12 Noroeste 22 Noroeste 0 -- -- 79
2019-03-31 00:00:00 15.4 15 Noroeste 27 Noroeste 0 -- -- 76
2019-03-30 23:00:00 15.4 19 Noroeste 26 Noroeste 0 -- -- 75
2019-03-30 22:00:00 15.7 18 Noroeste 32 Noroeste 0 -- -- 76
2019-03-30 21:00:00 15.7 19 Noroeste 31 Noroeste 0 -- -- 75
2019-03-30 20:00:00 15.8 19 Noroeste 27 Noroeste 0 -- -- 71
2019-03-30 19:00:00 16.2 17 Noroeste 28 Noroeste 0 -- -- 70
2019-03-30 18:00:00 17.2 14 Noroeste 30 Noroeste 0 -- -- 66
2019-03-30 17:00:00 18 16 Noroeste 27 Noroeste 0 -- -- 60
2019-03-30 16:00:00 18 14 Norte 25 Noroeste 0 -- -- 60
2019-03-30 15:00:00 18 16 Noroeste 26 Noroeste 0 -- -- 60
2019-03-30 14:00:00 18.9 16 Noroeste 29 Noroeste 0 -- -- 52
2019-03-30 13:00:00 18.5 15 Noroeste 26 Noroeste 0 -- -- 57
2019-03-30 12:00:00 18.7 15 Noroeste 27 Noroeste 0 -- -- 53
2019-03-30 11:00:00 17.8 16 Noroeste 26 Norte 0 -- -- 60
2019-03-30 10:00:00 16.7 14 Norte 21 Norte 0 -- -- 65
2019-03-30 09:00:00 15.6 15 Norte 21 Norte 0 -- -- 74
2019-03-30 08:00:00 13.9 5 Norte 8 Norte 0 -- -- 84
2019-03-30 07:00:00 12.1 0 Calma 8 Norte 0 -- -- 87
2019-03-30 06:00:00 11.9 2 Este 11 Nordeste 0 -- -- 85
2019-03-30 05:00:00 12.1 0 Calma 14 Norte 0 -- -- 85
2019-03-30 04:00:00 13.4 6 Nordeste 14 Nordeste 0 -- -- 83
2019-03-30 03:00:00 13.4 6 Nordeste 14 Norte 0 -- -- 83
2019-03-30 02:00:00 13.9 9 Nordeste 16 Nordeste 0 -- -- 82
2019-03-30 01:00:00 13.6 7 Norte 20 Norte 0 -- -- 83
2019-03-30 00:00:00 13.8 9 Nordeste 17 Nordeste 0 -- -- 84
2019-03-29 23:00:00 13.7 5 Norte 12 Norte 0 -- -- 84
2019-03-29 22:00:00 13.9 8 Norte 13 Norte 0 -- -- 83
2019-03-29 21:00:00 14.6 9 Norte 17 Norte 0 -- -- 80
2019-03-29 20:00:00 15 11 Norte 18 Norte 0 -- -- 79
2019-03-29 19:00:00 15.8 13 Norte 19 Norte 0 -- -- 75
2019-03-29 18:00:00 16.9 12 Norte 22 Norte 0 -- -- 69
2019-03-29 17:00:00 17.4 15 Norte 24 Noroeste 0 -- -- 68
2019-03-29 16:00:00 17.5 13 Norte 25 Norte 0 -- -- 69
2019-03-29 15:00:00 17.4 14 Norte 24 Norte 0 -- -- 69
2019-03-29 14:00:00 17.7 13 Norte 21 Norte 0 -- -- 70
2019-03-29 13:00:00 17.9 11 Noroeste 21 Oeste 0 -- -- 69
2019-03-29 12:00:00 18.2 14 Noroeste 23 Este 0 -- -- 67
2019-03-29 11:00:00 18.9 8 Este 21 Este 0 -- -- 60
2019-03-29 10:00:00 17.5 7 Este 19 Este 0 -- -- 67
2019-03-29 09:00:00 15.8 8 Este 12 Este 0 -- -- 76
2019-03-29 08:00:00 13 0 Calma 3 Nordeste 0 -- -- 90
2019-03-29 07:00:00 11.1 0 Calma 6 Sudeste 0 -- -- 89
2019-03-29 06:00:00 12 0 Calma 14 Este 0 -- -- 89
2019-03-29 05:00:00 11.8 6 Sudeste 10 Sudeste 0 -- -- 90
2019-03-29 04:00:00 12.7 6 Sudeste 9 Sudeste 0 -- -- 87
2019-03-29 03:00:00 13.5 3 Este 8 Este 0 -- -- 87
2019-03-29 02:00:00 13.6 3 Norte 10 Nordeste 0 -- -- 86
2019-03-29 01:00:00 13.7 2 Nordeste 9 Nordeste 0 -- -- 85
2019-03-29 00:00:00 13.7 2 Sudeste 9 Nordeste 0 -- -- 85
2019-03-28 23:00:00 13.8 3 Este 11 Este 0 -- -- 83
2019-03-28 22:00:00 14.4 4 Este 12 Nordeste 0 -- -- 82
2019-03-28 21:00:00 14.8 6 Nordeste 13 Nordeste 0 -- -- 80
2019-03-28 20:00:00 15.3 9 Nordeste 15 Norte 0 -- -- 78
2019-03-28 19:00:00 16.3 10 Norte 20 Norte 0 -- -- 73
2019-03-28 18:00:00 17.2 13 Norte 24 Norte 0 -- -- 70
2019-03-28 17:00:00 18.3 13 Norte 26 Norte 0 -- -- 65
2019-03-28 16:00:00 18.5 13 Norte 22 Noroeste 0 -- -- 63
2019-03-28 15:00:00 18.7 12 Norte 21 Norte 0 -- -- 62
2019-03-28 14:00:00 18.6 12 Norte 24 Norte 0 -- -- 62
2019-03-28 13:00:00 18.3 12 Norte 22 Norte 0 -- -- 63
2019-03-28 12:00:00 18.5 13 Norte 22 Noroeste 0 -- -- 65
2019-03-28 11:00:00 17.8 9 Norte 16 Norte 0 -- -- 67
2019-03-28 10:00:00 16.6 7 Nordeste 12 Nordeste 0 -- -- 73
2019-03-28 09:00:00 15.2 6 Norte 10 Norte 0 -- -- 82
2019-03-28 08:00:00 14 2 Norte 4 Noroeste 0 -- -- 91
2019-03-28 07:00:00 13.1 0 Calma 8 Nordeste 0 -- -- 90
2019-03-28 06:00:00 13.5 3 Norte 10 Norte 0 -- -- 90
2019-03-28 05:00:00 13.7 2 Norte 6 Norte 0 -- -- 91
2019-03-28 04:00:00 13.8 5 Norte 9 Norte 0 -- -- 91
2019-03-28 03:00:00 14.3 4 Norte 12 Norte 0 -- -- 90
2019-03-28 02:00:00 14.6 8 Norte 13 Nordeste 0 -- -- 90
2019-03-28 01:00:00 14.9 11 Nordeste 20 Norte 0 -- -- 89
2019-03-28 00:00:00 14.8 5 Norte 9 Norte 0 -- -- 88
2019-03-27 23:00:00 14.8 4 Norte 9 Norte 0 -- -- 87
2019-03-27 22:00:00 15.2 5 Norte 7 Norte 0 -- -- 86
2019-03-27 21:00:00 15.3 5 Norte 12 Nordeste 0 -- -- 84
2019-03-27 20:00:00 16.1 8 Norte 17 Norte 0 -- -- 82
2019-03-27 19:00:00 16.6 11 Norte 19 Norte 0 -- -- 81
2019-03-27 18:00:00 17.4 13 Noroeste 20 Norte 0 -- -- 75
2019-03-27 17:00:00 17.9 12 Norte 22 Norte 0 -- -- 71
2019-03-27 16:00:00 18.1 13 Norte 25 Norte 0 -- -- 71
2019-03-27 15:00:00 19.1 17 Norte 27 Noroeste 0 -- -- 68
2019-03-27 14:00:00 19 15 Noroeste 24 Noroeste 0 -- -- 70
2019-03-27 13:00:00 19.4 15 Noroeste 24 Noroeste 0 -- -- 69
2019-03-27 12:00:00 18.3 13 Noroeste 25 Oeste 0 -- -- 71
2019-03-27 11:00:00 17.7 13 Oeste 21 Oeste 0 -- -- 73
2019-03-27 10:00:00 16.9 6 Noroeste 14 Oeste 0 -- -- 81
2019-03-27 09:00:00 15.7 9 Oeste 13 Oeste 0 -- -- 87
2019-03-27 08:00:00 14.5 6 Oeste 8 Oeste 0 -- -- 94
2019-03-27 07:00:00 12.5 3 Oeste 8 Oeste 0 -- -- 93
2019-03-27 06:00:00 12.4 5 Sudoeste 7 Sudoeste 0 -- -- 94
2019-03-27 05:00:00 12.8 5 Oeste 7 Oeste 0 -- -- 93
2019-03-27 04:00:00 12.8 4 Sudoeste 6 Sudoeste 0 -- -- 93
2019-03-27 03:00:00 12.3 3 Sudoeste 6 Oeste 0 -- -- 93
2019-03-27 02:00:00 13.1 5 Noroeste 9 Noroeste 0 -- -- 93
2019-03-27 01:00:00 13.3 6 Oeste 9 Oeste 0 -- -- 92
2019-03-27 00:00:00 12.9 4 Sudoeste 8 Oeste 0 -- -- 91